sensor_id;sensor_type;location;lat;lon;timestamp;temperature;humidity
23497;DHT22;11925;48.122;11.560;2023-03-11T00:00:32;8.60;73.40
23497;DHT22;11925;48.122;11.560;2023-03-11T00:03:02;8.60;73.60
23497;DHT22;11925;48.122;11.560;2023-03-11T00:05:33;8.60;73.60
23497;DHT22;11925;48.122;11.560;2023-03-11T00:08:03;8.60;73.50
23497;DHT22;11925;48.122;11.560;2023-03-11T00:10:34;8.60;73.90
23497;DHT22;11925;48.122;11.560;2023-03-11T00:13:05;8.60;74.10
23497;DHT22;11925;48.122;11.560;2023-03-11T00:15:34;8.60;73.40
23497;DHT22;11925;48.122;11.560;2023-03-11T00:18:03;8.60;73.20
23497;DHT22;11925;48.122;11.560;2023-03-11T00:20:34;8.60;72.90
23497;DHT22;11925;48.122;11.560;2023-03-11T00:23:03;8.50;72.70
23497;DHT22;11925;48.122;11.560;2023-03-11T00:25:33;8.50;72.40
23497;DHT22;11925;48.122;11.560;2023-03-11T00:28:04;8.60;72.50
23497;DHT22;11925;48.122;11.560;2023-03-11T00:30:33;8.60;73.40
23497;DHT22;11925;48.122;11.560;2023-03-11T00:33:02;8.50;72.30
23497;DHT22;11925;48.122;11.560;2023-03-11T00:35:32;8.50;72.10
23497;DHT22;11925;48.122;11.560;2023-03-11T00:38:03;8.50;72.00
23497;DHT22;11925;48.122;11.560;2023-03-11T00:40:33;8.50;71.80
23497;DHT22;11925;48.122;11.560;2023-03-11T00:43:04;8.50;72.00
23497;DHT22;11925;48.122;11.560;2023-03-11T00:45:35;8.50;71.80
23497;DHT22;11925;48.122;11.560;2023-03-11T00:48:04;8.50;71.60
23497;DHT22;11925;48.122;11.560;2023-03-11T00:50:34;8.50;71.70
23497;DHT22;11925;48.122;11.560;2023-03-11T00:53:04;8.50;71.60
23497;DHT22;11925;48.122;11.560;2023-03-11T00:55:34;8.50;71.60
23497;DHT22;11925;48.122;11.560;2023-03-11T00:58:11;8.40;71.50
23497;DHT22;11925;48.122;11.560;2023-03-11T01:00:44;8.40;71.40
23497;DHT22;11925;48.122;11.560;2023-03-11T01:03:12;8.40;71.40
23497;DHT22;11925;48.122;11.560;2023-03-11T01:05:44;8.30;71.50
23497;DHT22;11925;48.122;11.560;2023-03-11T01:08:12;8.40;71.50
23497;DHT22;11925;48.122;11.560;2023-03-11T01:10:40;8.40;71.70
23497;DHT22;11925;48.122;11.560;2023-03-11T01:13:10;8.40;71.60
23497;DHT22;11925;48.122;11.560;2023-03-11T01:15:38;8.50;72.00
23497;DHT22;11925;48.122;11.560;2023-03-11T01:18:07;8.40;72.20
23497;DHT22;11925;48.122;11.560;2023-03-11T01:20:37;8.50;72.20
23497;DHT22;11925;48.122;11.560;2023-03-11T01:23:06;8.50;72.40
23497;DHT22;11925;48.122;11.560;2023-03-11T01:25:35;8.50;72.00
23497;DHT22;11925;48.122;11.560;2023-03-11T01:28:04;8.40;71.70
23497;DHT22;11925;48.122;11.560;2023-03-11T01:30:37;8.40;72.10
23497;DHT22;11925;48.122;11.560;2023-03-11T01:33:07;8.40;72.10
23497;DHT22;11925;48.122;11.560;2023-03-11T01:35:38;8.40;72.00
23497;DHT22;11925;48.122;11.560;2023-03-11T01:38:08;8.40;72.30
23497;DHT22;11925;48.122;11.560;2023-03-11T01:40:38;8.40;72.50
23497;DHT22;11925;48.122;11.560;2023-03-11T01:43:36;8.40;72.20
23497;DHT22;11925;48.122;11.560;2023-03-11T01:46:15;8.40;72.20
23497;DHT22;11925;48.122;11.560;2023-03-11T01:48:46;8.30;72.10
23497;DHT22;11925;48.122;11.560;2023-03-11T01:51:17;8.30;71.90
23497;DHT22;11925;48.122;11.560;2023-03-11T01:53:46;8.30;72.00
23497;DHT22;11925;48.122;11.560;2023-03-11T01:56:15;8.30;71.90
23497;DHT22;11925;48.122;11.560;2023-03-11T01:58:45;8.30;72.00
23497;DHT22;11925;48.122;11.560;2023-03-11T02:01:18;8.30;71.90
23497;DHT22;11925;48.122;11.560;2023-03-11T02:03:47;8.30;71.80
23497;DHT22;11925;48.122;11.560;2023-03-11T02:06:19;8.20;71.30
23497;DHT22;11925;48.122;11.560;2023-03-11T02:08:49;8.30;71.40
23497;DHT22;11925;48.122;11.560;2023-03-11T02:11:22;8.20;71.40
23497;DHT22;11925;48.122;11.560;2023-03-11T02:13:53;8.20;71.10
23497;DHT22;11925;48.122;11.560;2023-03-11T02:16:26;8.20;71.30
23497;DHT22;11925;48.122;11.560;2023-03-11T02:18:56;8.20;71.00
23497;DHT22;11925;48.122;11.560;2023-03-11T02:21:26;8.30;70.90
23497;DHT22;11925;48.122;11.560;2023-03-11T02:24:06;8.30;71.40
23497;DHT22;11925;48.122;11.560;2023-03-11T02:29:13;8.30;71.00
23497;DHT22;11925;48.122;11.560;2023-03-11T02:31:42;8.30;70.80
23497;DHT22;11925;48.122;11.560;2023-03-11T02:34:17;8.30;70.80
23497;DHT22;11925;48.122;11.560;2023-03-11T02:36:48;8.30;71.10
23497;DHT22;11925;48.122;11.560;2023-03-11T02:39:28;8.20;70.60
23497;DHT22;11925;48.122;11.560;2023-03-11T02:41:58;8.30;70.70
23497;DHT22;11925;48.122;11.560;2023-03-11T02:44:28;8.20;70.60
23497;DHT22;11925;48.122;11.560;2023-03-11T02:46:58;8.30;70.70
23497;DHT22;11925;48.122;11.560;2023-03-11T02:49:29;8.30;71.00
23497;DHT22;11925;48.122;11.560;2023-03-11T02:51:58;8.30;70.60
23497;DHT22;11925;48.122;11.560;2023-03-11T02:54:28;8.30;70.50
23497;DHT22;11925;48.122;11.560;2023-03-11T02:56:57;8.20;70.40
23497;DHT22;11925;48.122;11.560;2023-03-11T02:59:28;8.20;70.70
23497;DHT22;11925;48.122;11.560;2023-03-11T03:01:58;8.60;70.70
23497;DHT22;11925;48.122;11.560;2023-03-11T03:04:27;8.10;70.10
23497;DHT22;11925;48.122;11.560;2023-03-11T03:06:57;8.10;70.00
23497;DHT22;11925;48.122;11.560;2023-03-11T03:09:25;8.10;69.90
23497;DHT22;11925;48.122;11.560;2023-03-11T03:11:54;8.10;69.70
23497;DHT22;11925;48.122;11.560;2023-03-11T03:14:23;8.10;69.60
23497;DHT22;11925;48.122;11.560;2023-03-11T03:16:53;8.10;69.60
23497;DHT22;11925;48.122;11.560;2023-03-11T03:19:21;8.20;69.80
23497;DHT22;11925;48.122;11.560;2023-03-11T03:21:50;8.20;69.80
23497;DHT22;11925;48.122;11.560;2023-03-11T03:24:20;8.10;69.40
23497;DHT22;11925;48.122;11.560;2023-03-11T03:26:48;8.20;69.30
23497;DHT22;11925;48.122;11.560;2023-03-11T03:29:16;8.20;69.30
23497;DHT22;11925;48.122;11.560;2023-03-11T03:31:47;8.10;69.30
23497;DHT22;11925;48.122;11.560;2023-03-11T03:34:17;8.10;69.00
23497;DHT22;11925;48.122;11.560;2023-03-11T03:36:45;8.10;69.00
23497;DHT22;11925;48.122;11.560;2023-03-11T03:39:15;8.10;69.20
23497;DHT22;11925;48.122;11.560;2023-03-11T03:41:50;8.00;69.20
23497;DHT22;11925;48.122;11.560;2023-03-11T03:44:22;8.10;68.80
23497;DHT22;11925;48.122;11.560;2023-03-11T03:46:50;8.10;68.60
23497;DHT22;11925;48.122;11.560;2023-03-11T03:49:20;8.10;68.80
23497;DHT22;11925;48.122;11.560;2023-03-11T03:51:49;8.00;68.30
23497;DHT22;11925;48.122;11.560;2023-03-11T03:54:30;8.00;68.40
23497;DHT22;11925;48.122;11.560;2023-03-11T03:57:00;8.00;68.40
23497;DHT22;11925;48.122;11.560;2023-03-11T03:59:30;8.00;68.40
23497;DHT22;11925;48.122;11.560;2023-03-11T04:02:00;8.10;68.50
23497;DHT22;11925;48.122;11.560;2023-03-11T04:04:31;8.00;68.60
23497;DHT22;11925;48.122;11.560;2023-03-11T04:06:59;8.00;68.20
23497;DHT22;11925;48.122;11.560;2023-03-11T04:09:28;8.10;68.30
23497;DHT22;11925;48.122;11.560;2023-03-11T04:11:56;8.20;68.20
23497;DHT22;11925;48.122;11.560;2023-03-11T04:14:26;8.10;68.30
23497;DHT22;11925;48.122;11.560;2023-03-11T04:16:58;8.00;68.10
23497;DHT22;11925;48.122;11.560;2023-03-11T04:19:27;8.10;68.30
23497;DHT22;11925;48.122;11.560;2023-03-11T04:21:58;8.10;68.10
23497;DHT22;11925;48.122;11.560;2023-03-11T04:24:28;8.00;68.10
23497;DHT22;11925;48.122;11.560;2023-03-11T04:26:56;8.10;68.30
23497;DHT22;11925;48.122;11.560;2023-03-11T04:29:25;8.10;68.60
23497;DHT22;11925;48.122;11.560;2023-03-11T04:31:53;8.10;68.30
23497;DHT22;11925;48.122;11.560;2023-03-11T04:34:21;8.00;68.20
23497;DHT22;11925;48.122;11.560;2023-03-11T04:36:51;8.00;68.30
23497;DHT22;11925;48.122;11.560;2023-03-11T04:39:24;8.10;68.30
23497;DHT22;11925;48.122;11.560;2023-03-11T04:41:53;8.10;68.30
23497;DHT22;11925;48.122;11.560;2023-03-11T04:44:24;8.10;68.40
23497;DHT22;11925;48.122;11.560;2023-03-11T04:46:52;8.10;68.30
23497;DHT22;11925;48.122;11.560;2023-03-11T04:49:21;8.10;68.40
23497;DHT22;11925;48.122;11.560;2023-03-11T04:51:50;8.10;69.30
23497;DHT22;11925;48.122;11.560;2023-03-11T04:54:21;8.00;68.20
23497;DHT22;11925;48.122;11.560;2023-03-11T04:56:51;8.10;68.40
23497;DHT22;11925;48.122;11.560;2023-03-11T04:59:21;8.10;68.30
23497;DHT22;11925;48.122;11.560;2023-03-11T05:01:51;8.00;68.40
23497;DHT22;11925;48.122;11.560;2023-03-11T05:04:19;8.00;68.40
23497;DHT22;11925;48.122;11.560;2023-03-11T05:06:48;8.10;68.70
23497;DHT22;11925;48.122;11.560;2023-03-11T05:09:19;8.00;68.60
23497;DHT22;11925;48.122;11.560;2023-03-11T05:11:48;8.00;68.60
23497;DHT22;11925;48.122;11.560;2023-03-11T05:14:19;8.00;68.50
23497;DHT22;11925;48.122;11.560;2023-03-11T05:16:50;8.00;68.40
23497;DHT22;11925;48.122;11.560;2023-03-11T05:19:18;8.00;68.60
23497;DHT22;11925;48.122;11.560;2023-03-11T05:22:10;8.00;68.70
23497;DHT22;11925;48.122;11.560;2023-03-11T05:24:38;7.90;68.70
23497;DHT22;11925;48.122;11.560;2023-03-11T05:27:06;8.00;68.70
23497;DHT22;11925;48.122;11.560;2023-03-11T05:29:38;8.00;68.70
23497;DHT22;11925;48.122;11.560;2023-03-11T05:32:09;8.00;69.00
23497;DHT22;11925;48.122;11.560;2023-03-11T05:34:38;8.00;69.00
23497;DHT22;11925;48.122;11.560;2023-03-11T05:37:07;8.00;69.00
23497;DHT22;11925;48.122;11.560;2023-03-11T05:39:35;8.00;69.30
23497;DHT22;11925;48.122;11.560;2023-03-11T05:42:05;7.90;69.40
23497;DHT22;11925;48.122;11.560;2023-03-11T05:44:34;7.90;69.50
23497;DHT22;11925;48.122;11.560;2023-03-11T05:47:04;7.90;69.40
23497;DHT22;11925;48.122;11.560;2023-03-11T05:49:35;7.90;69.50
23497;DHT22;11925;48.122;11.560;2023-03-11T05:52:04;7.90;69.40
23497;DHT22;11925;48.122;11.560;2023-03-11T05:54:34;7.90;69.50
23497;DHT22;11925;48.122;11.560;2023-03-11T05:57:03;7.80;69.50
23497;DHT22;11925;48.122;11.560;2023-03-11T05:59:33;7.90;69.80
23497;DHT22;11925;48.122;11.560;2023-03-11T06:02:06;7.90;69.00
23497;DHT22;11925;48.122;11.560;2023-03-11T06:04:34;7.80;68.90
23497;DHT22;11925;48.122;11.560;2023-03-11T06:07:03;7.80;68.40
23497;DHT22;11925;48.122;11.560;2023-03-11T06:09:35;7.80;68.40
23497;DHT22;11925;48.122;11.560;2023-03-11T06:12:07;7.80;67.70
23497;DHT22;11925;48.122;11.560;2023-03-11T06:14:49;7.80;67.40
23497;DHT22;11925;48.122;11.560;2023-03-11T06:17:19;7.70;66.80
23497;DHT22;11925;48.122;11.560;2023-03-11T06:19:47;7.70;66.50
23497;DHT22;11925;48.122;11.560;2023-03-11T06:22:16;7.70;66.00
23497;DHT22;11925;48.122;11.560;2023-03-11T06:24:44;7.70;65.90
23497;DHT22;11925;48.122;11.560;2023-03-11T06:27:12;7.70;65.90
23497;DHT22;11925;48.122;11.560;2023-03-11T06:29:41;7.70;65.40
23497;DHT22;11925;48.122;11.560;2023-03-11T06:32:10;7.70;65.30
23497;DHT22;11925;48.122;11.560;2023-03-11T06:34:40;7.70;64.90
23497;DHT22;11925;48.122;11.560;2023-03-11T06:37:08;7.70;65.00
23497;DHT22;11925;48.122;11.560;2023-03-11T06:39:38;7.70;64.80
23497;DHT22;11925;48.122;11.560;2023-03-11T06:42:09;7.60;64.30
23497;DHT22;11925;48.122;11.560;2023-03-11T06:44:38;7.60;64.30
23497;DHT22;11925;48.122;11.560;2023-03-11T06:47:08;7.70;64.10
23497;DHT22;11925;48.122;11.560;2023-03-11T06:49:36;7.70;63.90
23497;DHT22;11925;48.122;11.560;2023-03-11T06:52:08;7.70;63.80
23497;DHT22;11925;48.122;11.560;2023-03-11T06:54:37;7.70;63.60
23497;DHT22;11925;48.122;11.560;2023-03-11T06:57:08;7.70;63.60
23497;DHT22;11925;48.122;11.560;2023-03-11T06:59:37;7.70;63.70
23497;DHT22;11925;48.122;11.560;2023-03-11T07:02:11;7.60;63.70
23497;DHT22;11925;48.122;11.560;2023-03-11T07:04:41;7.60;63.60
23497;DHT22;11925;48.122;11.560;2023-03-11T07:07:11;7.60;63.80
23497;DHT22;11925;48.122;11.560;2023-03-11T07:09:39;7.70;63.90
23497;DHT22;11925;48.122;11.560;2023-03-11T07:12:12;7.70;63.70
23497;DHT22;11925;48.122;11.560;2023-03-11T07:14:41;7.70;63.80
23497;DHT22;11925;48.122;11.560;2023-03-11T07:17:09;7.70;63.90
23497;DHT22;11925;48.122;11.560;2023-03-11T07:19:48;7.70;64.20
23497;DHT22;11925;48.122;11.560;2023-03-11T07:22:18;7.70;64.30
23497;DHT22;11925;48.122;11.560;2023-03-11T07:24:46;7.70;64.50
23497;DHT22;11925;48.122;11.560;2023-03-11T07:27:15;7.70;65.00
23497;DHT22;11925;48.122;11.560;2023-03-11T07:29:44;7.60;65.30
23497;DHT22;11925;48.122;11.560;2023-03-11T07:32:12;7.70;65.40
23497;DHT22;11925;48.122;11.560;2023-03-11T07:34:41;7.60;65.50
23497;DHT22;11925;48.122;11.560;2023-03-11T07:37:09;7.70;65.60
23497;DHT22;11925;48.122;11.560;2023-03-11T07:39:39;7.70;65.60
23497;DHT22;11925;48.122;11.560;2023-03-11T07:42:07;7.60;65.50
23497;DHT22;11925;48.122;11.560;2023-03-11T07:44:36;7.60;65.70
23497;DHT22;11925;48.122;11.560;2023-03-11T07:47:05;7.60;65.70
23497;DHT22;11925;48.122;11.560;2023-03-11T07:49:36;7.60;65.90
23497;DHT22;11925;48.122;11.560;2023-03-11T07:52:05;7.70;65.90
23497;DHT22;11925;48.122;11.560;2023-03-11T07:54:34;7.70;65.90
23497;DHT22;11925;48.122;11.560;2023-03-11T07:57:12;7.70;66.00
23497;DHT22;11925;48.122;11.560;2023-03-11T07:59:43;7.70;66.10
23497;DHT22;11925;48.122;11.560;2023-03-11T08:02:11;7.70;66.30
23497;DHT22;11925;48.122;11.560;2023-03-11T08:04:39;7.70;66.30
23497;DHT22;11925;48.122;11.560;2023-03-11T08:07:08;7.80;66.30
23497;DHT22;11925;48.122;11.560;2023-03-11T08:09:36;7.80;66.10
23497;DHT22;11925;48.122;11.560;2023-03-11T08:12:05;7.70;65.90
23497;DHT22;11925;48.122;11.560;2023-03-11T08:14:35;7.70;65.90
23497;DHT22;11925;48.122;11.560;2023-03-11T08:17:05;7.70;65.80
23497;DHT22;11925;48.122;11.560;2023-03-11T08:19:33;7.70;65.90
23497;DHT22;11925;48.122;11.560;2023-03-11T08:22:02;7.70;65.60
23497;DHT22;11925;48.122;11.560;2023-03-11T08:24:30;7.70;65.60
23497;DHT22;11925;48.122;11.560;2023-03-11T08:26:59;7.80;65.80
23497;DHT22;11925;48.122;11.560;2023-03-11T08:29:27;7.70;65.70
23497;DHT22;11925;48.122;11.560;2023-03-11T08:31:57;7.80;65.60
23497;DHT22;11925;48.122;11.560;2023-03-11T08:34:26;7.80;65.80
23497;DHT22;11925;48.122;11.560;2023-03-11T08:36:54;7.80;65.80
23497;DHT22;11925;48.122;11.560;2023-03-11T08:39:23;7.80;65.70
23497;DHT22;11925;48.122;11.560;2023-03-11T08:41:51;7.90;65.80
23497;DHT22;11925;48.122;11.560;2023-03-11T08:44:20;7.90;65.90
23497;DHT22;11925;48.122;11.560;2023-03-11T08:46:48;7.90;66.50
23497;DHT22;11925;48.122;11.560;2023-03-11T08:49:18;7.90;65.80
23497;DHT22;11925;48.122;11.560;2023-03-11T08:51:46;7.90;65.90
23497;DHT22;11925;48.122;11.560;2023-03-11T08:54:14;7.80;65.60
23497;DHT22;11925;48.122;11.560;2023-03-11T08:56:43;7.80;65.50
23497;DHT22;11925;48.122;11.560;2023-03-11T08:59:11;7.80;64.70
23497;DHT22;11925;48.122;11.560;2023-03-11T09:01:39;7.80;64.70
23497;DHT22;11925;48.122;11.560;2023-03-11T09:04:08;7.80;64.60
23497;DHT22;11925;48.122;11.560;2023-03-11T09:06:42;7.80;64.70
23497;DHT22;11925;48.122;11.560;2023-03-11T09:09:11;7.80;64.00
23497;DHT22;11925;48.122;11.560;2023-03-11T09:11:39;7.80;64.40
23497;DHT22;11925;48.122;11.560;2023-03-11T09:14:08;7.80;64.10
23497;DHT22;11925;48.122;11.560;2023-03-11T09:16:36;7.80;64.20
23497;DHT22;11925;48.122;11.560;2023-03-11T09:19:04;7.70;63.60
23497;DHT22;11925;48.122;11.560;2023-03-11T09:21:34;7.70;64.00
23497;DHT22;11925;48.122;11.560;2023-03-11T09:24:04;7.70;63.50
23497;DHT22;11925;48.122;11.560;2023-03-11T09:26:33;7.70;63.60
23497;DHT22;11925;48.122;11.560;2023-03-11T09:29:01;7.70;63.90
23497;DHT22;11925;48.122;11.560;2023-03-11T09:31:29;7.70;63.70
23497;DHT22;11925;48.122;11.560;2023-03-11T09:33:57;7.80;63.90
23497;DHT22;11925;48.122;11.560;2023-03-11T09:36:26;7.80;63.80
23497;DHT22;11925;48.122;11.560;2023-03-11T09:38:54;7.80;64.00
23497;DHT22;11925;48.122;11.560;2023-03-11T09:41:30;7.70;63.60
23497;DHT22;11925;48.122;11.560;2023-03-11T09:44:19;7.70;63.00
23497;DHT22;11925;48.122;11.560;2023-03-11T09:47:05;7.60;62.30
23497;DHT22;11925;48.122;11.560;2023-03-11T09:53:08;7.60;62.10
23497;DHT22;11925;48.122;11.560;2023-03-11T09:55:43;7.60;62.70
23497;DHT22;11925;48.122;11.560;2023-03-11T09:58:16;7.60;61.80
23497;DHT22;11925;48.122;11.560;2023-03-11T10:00:46;7.60;61.50
23497;DHT22;11925;48.122;11.560;2023-03-11T10:06:14;7.60;61.40
23497;DHT22;11925;48.122;11.560;2023-03-11T10:08:46;7.60;61.10
23497;DHT22;11925;48.122;11.560;2023-03-11T10:16:23;7.60;61.30
23497;DHT22;11925;48.122;11.560;2023-03-11T10:19:03;7.70;60.90
23497;DHT22;11925;48.122;11.560;2023-03-11T10:21:40;7.70;61.40
23497;DHT22;11925;48.122;11.560;2023-03-11T10:24:20;7.70;60.90
23497;DHT22;11925;48.122;11.560;2023-03-11T10:26:56;7.80;60.50
23497;DHT22;11925;48.122;11.560;2023-03-11T10:29:28;7.80;60.40
23497;DHT22;11925;48.122;11.560;2023-03-11T10:32:03;7.80;60.10
23497;DHT22;11925;48.122;11.560;2023-03-11T10:34:37;7.70;59.90
23497;DHT22;11925;48.122;11.560;2023-03-11T10:37:11;7.80;59.90
23497;DHT22;11925;48.122;11.560;2023-03-11T10:39:41;7.70;59.20
23497;DHT22;11925;48.122;11.560;2023-03-11T10:42:15;7.70;59.30
23497;DHT22;11925;48.122;11.560;2023-03-11T10:44:44;7.70;59.80
23497;DHT22;11925;48.122;11.560;2023-03-11T10:47:16;7.70;59.40
23497;DHT22;11925;48.122;11.560;2023-03-11T10:49:45;7.70;59.20
23497;DHT22;11925;48.122;11.560;2023-03-11T10:52:14;7.70;59.50
23497;DHT22;11925;48.122;11.560;2023-03-11T10:54:44;7.70;59.40
23497;DHT22;11925;48.122;11.560;2023-03-11T10:57:23;7.70;59.30
23497;DHT22;11925;48.122;11.560;2023-03-11T10:59:53;7.70;59.40
23497;DHT22;11925;48.122;11.560;2023-03-11T11:02:25;7.70;59.10
23497;DHT22;11925;48.122;11.560;2023-03-11T11:05:07;7.80;59.20
23497;DHT22;11925;48.122;11.560;2023-03-11T11:07:48;7.80;59.50
23497;DHT22;11925;48.122;11.560;2023-03-11T11:10:18;7.70;59.70
23497;DHT22;11925;48.122;11.560;2023-03-11T11:12:52;7.80;59.00
23497;DHT22;11925;48.122;11.560;2023-03-11T11:15:23;7.80;59.60
23497;DHT22;11925;48.122;11.560;2023-03-11T11:17:56;7.80;59.10
23497;DHT22;11925;48.122;11.560;2023-03-11T11:20:27;7.80;59.20
23497;DHT22;11925;48.122;11.560;2023-03-11T11:22:57;7.80;58.90
23497;DHT22;11925;48.122;11.560;2023-03-11T11:25:31;7.70;58.80
23497;DHT22;11925;48.122;11.560;2023-03-11T11:28:02;7.80;59.00
23497;DHT22;11925;48.122;11.560;2023-03-11T11:30:36;7.80;59.30
23497;DHT22;11925;48.122;11.560;2023-03-11T11:33:22;7.70;59.30
23497;DHT22;11925;48.122;11.560;2023-03-11T11:35:52;7.70;60.10
23497;DHT22;11925;48.122;11.560;2023-03-11T11:38:22;7.80;60.00
23497;DHT22;11925;48.122;11.560;2023-03-11T11:40:52;7.80;59.70
23497;DHT22;11925;48.122;11.560;2023-03-11T11:43:29;7.80;59.80
23497;DHT22;11925;48.122;11.560;2023-03-11T11:46:02;7.80;60.20
23497;DHT22;11925;48.122;11.560;2023-03-11T11:48:46;7.80;60.90
23497;DHT22;11925;48.122;11.560;2023-03-11T11:51:20;7.80;60.20
23497;DHT22;11925;48.122;11.560;2023-03-11T11:53:53;7.90;59.50
23497;DHT22;11925;48.122;11.560;2023-03-11T11:56:24;7.90;59.00
23497;DHT22;11925;48.122;11.560;2023-03-11T11:58:53;7.90;59.20
23497;DHT22;11925;48.122;11.560;2023-03-11T12:01:30;7.90;59.70
23497;DHT22;11925;48.122;11.560;2023-03-11T12:04:21;7.90;59.20
23497;DHT22;11925;48.122;11.560;2023-03-11T12:07:03;7.90;59.50
23497;DHT22;11925;48.122;11.560;2023-03-11T12:09:39;7.90;60.20
23497;DHT22;11925;48.122;11.560;2023-03-11T12:12:20;7.80;59.80
23497;DHT22;11925;48.122;11.560;2023-03-11T12:14:55;7.80;59.30
23497;DHT22;11925;48.122;11.560;2023-03-11T12:17:26;7.90;59.20
23497;DHT22;11925;48.122;11.560;2023-03-11T12:20:00;7.90;59.40
23497;DHT22;11925;48.122;11.560;2023-03-11T12:22:54;7.80;59.20
23497;DHT22;11925;48.122;11.560;2023-03-11T12:25:33;7.80;58.70
23497;DHT22;11925;48.122;11.560;2023-03-11T12:28:13;7.90;59.00
23497;DHT22;11925;48.122;11.560;2023-03-11T12:30:46;7.80;58.80
23497;DHT22;11925;48.122;11.560;2023-03-11T12:33:18;7.80;58.80
23497;DHT22;11925;48.122;11.560;2023-03-11T12:35:55;7.90;58.70
23497;DHT22;11925;48.122;11.560;2023-03-11T12:38:29;7.90;59.00
23497;DHT22;11925;48.122;11.560;2023-03-11T12:41:04;7.90;59.10
23497;DHT22;11925;48.122;11.560;2023-03-11T12:47:02;8.00;59.70
23497;DHT22;11925;48.122;11.560;2023-03-11T12:49:31;8.00;59.70
23497;DHT22;11925;48.122;11.560;2023-03-11T12:52:04;7.90;59.80
23497;DHT22;11925;48.122;11.560;2023-03-11T12:54:34;7.90;59.90
23497;DHT22;11925;48.122;11.560;2023-03-11T12:57:07;7.80;59.30
23497;DHT22;11925;48.122;11.560;2023-03-11T13:00:06;7.90;59.60
23497;DHT22;11925;48.122;11.560;2023-03-11T13:05:53;8.00;60.00
23497;DHT22;11925;48.122;11.560;2023-03-11T13:08:26;7.90;59.80
23497;DHT22;11925;48.122;11.560;2023-03-11T13:10:57;7.90;59.90
23497;DHT22;11925;48.122;11.560;2023-03-11T13:13:36;7.90;59.40
23497;DHT22;11925;48.122;11.560;2023-03-11T13:16:37;7.90;59.00
23497;DHT22;11925;48.122;11.560;2023-03-11T13:19:35;8.00;59.00
23497;DHT22;11925;48.122;11.560;2023-03-11T13:25:29;8.00;60.00
23497;DHT22;11925;48.122;11.560;2023-03-11T13:28:06;8.00;59.70
23497;DHT22;11925;48.122;11.560;2023-03-11T13:30:46;8.00;59.50
23497;DHT22;11925;48.122;11.560;2023-03-11T13:33:28;8.00;59.80
23497;DHT22;11925;48.122;11.560;2023-03-11T13:36:11;7.90;59.20
23497;DHT22;11925;48.122;11.560;2023-03-11T13:39:00;8.00;59.60
23497;DHT22;11925;48.122;11.560;2023-03-11T13:41:35;8.00;59.70
23497;DHT22;11925;48.122;11.560;2023-03-11T13:44:12;8.00;59.40
23497;DHT22;11925;48.122;11.560;2023-03-11T13:46:42;8.10;60.10
23497;DHT22;11925;48.122;11.560;2023-03-11T13:49:24;8.10;59.80
23497;DHT22;11925;48.122;11.560;2023-03-11T13:51:55;8.10;60.20
23497;DHT22;11925;48.122;11.560;2023-03-11T13:54:32;8.10;60.40
23497;DHT22;11925;48.122;11.560;2023-03-11T13:57:03;8.10;60.40
23497;DHT22;11925;48.122;11.560;2023-03-11T13:59:35;8.10;60.30
23497;DHT22;11925;48.122;11.560;2023-03-11T14:02:15;8.10;60.00
23497;DHT22;11925;48.122;11.560;2023-03-11T14:04:47;8.00;59.80
23497;DHT22;11925;48.122;11.560;2023-03-11T14:07:23;8.20;59.60
23497;DHT22;11925;48.122;11.560;2023-03-11T14:10:08;8.10;60.10
23497;DHT22;11925;48.122;11.560;2023-03-11T14:12:44;8.10;59.80
23497;DHT22;11925;48.122;11.560;2023-03-11T14:15:14;8.10;59.60
23497;DHT22;11925;48.122;11.560;2023-03-11T14:17:44;8.10;59.90
23497;DHT22;11925;48.122;11.560;2023-03-11T14:20:16;8.10;59.80
23497;DHT22;11925;48.122;11.560;2023-03-11T14:22:48;8.20;60.00
23497;DHT22;11925;48.122;11.560;2023-03-11T14:25:18;8.20;60.40
23497;DHT22;11925;48.122;11.560;2023-03-11T14:27:54;8.20;60.90
23497;DHT22;11925;48.122;11.560;2023-03-11T14:30:25;8.10;60.60
23497;DHT22;11925;48.122;11.560;2023-03-11T14:32:59;8.20;61.40
23497;DHT22;11925;48.122;11.560;2023-03-11T14:35:29;8.20;60.90
23497;DHT22;11925;48.122;11.560;2023-03-11T14:37:57;8.20;60.50
23497;DHT22;11925;48.122;11.560;2023-03-11T14:40:28;8.10;60.50
23497;DHT22;11925;48.122;11.560;2023-03-11T14:43:00;8.20;60.90
23497;DHT22;11925;48.122;11.560;2023-03-11T14:45:31;8.10;59.50
23497;DHT22;11925;48.122;11.560;2023-03-11T14:48:07;8.20;59.70
23497;DHT22;11925;48.122;11.560;2023-03-11T14:50:37;8.00;59.80
23497;DHT22;11925;48.122;11.560;2023-03-11T14:53:08;8.10;59.90
23497;DHT22;11925;48.122;11.560;2023-03-11T14:55:44;8.10;59.40
23497;DHT22;11925;48.122;11.560;2023-03-11T14:58:21;8.20;59.50
23497;DHT22;11925;48.122;11.560;2023-03-11T15:00:58;8.20;60.30
23497;DHT22;11925;48.122;11.560;2023-03-11T15:03:32;8.20;59.90
23497;DHT22;11925;48.122;11.560;2023-03-11T15:06:04;8.10;59.90
23497;DHT22;11925;48.122;11.560;2023-03-11T15:08:41;8.20;59.30
23497;DHT22;11925;48.122;11.560;2023-03-11T15:11:19;8.20;59.80
23497;DHT22;11925;48.122;11.560;2023-03-11T15:13:49;8.30;60.30
23497;DHT22;11925;48.122;11.560;2023-03-11T15:16:24;8.30;60.00
23497;DHT22;11925;48.122;11.560;2023-03-11T15:18:53;8.20;60.50
23497;DHT22;11925;48.122;11.560;2023-03-11T15:21:22;8.20;60.00
23497;DHT22;11925;48.122;11.560;2023-03-11T15:23:54;8.10;60.30
23497;DHT22;11925;48.122;11.560;2023-03-11T15:26:27;8.10;60.30
23497;DHT22;11925;48.122;11.560;2023-03-11T15:28:58;8.10;59.50
23497;DHT22;11925;48.122;11.560;2023-03-11T15:31:30;8.10;59.60
23497;DHT22;11925;48.122;11.560;2023-03-11T15:34:18;8.00;59.80
23497;DHT22;11925;48.122;11.560;2023-03-11T15:37:01;8.20;59.30
23497;DHT22;11925;48.122;11.560;2023-03-11T15:39:44;8.30;60.20
23497;DHT22;11925;48.122;11.560;2023-03-11T15:42:18;8.30;60.80
23497;DHT22;11925;48.122;11.560;2023-03-11T15:45:06;8.30;61.00
23497;DHT22;11925;48.122;11.560;2023-03-11T15:47:35;8.30;61.00
23497;DHT22;11925;48.122;11.560;2023-03-11T15:50:13;8.30;60.70
23497;DHT22;11925;48.122;11.560;2023-03-11T15:52:52;8.30;61.40
23497;DHT22;11925;48.122;11.560;2023-03-11T15:58:17;8.30;61.90
23497;DHT22;11925;48.122;11.560;2023-03-11T16:00:49;8.30;61.80
23497;DHT22;11925;48.122;11.560;2023-03-11T16:03:17;8.40;62.10
23497;DHT22;11925;48.122;11.560;2023-03-11T16:05:46;8.40;62.80
23497;DHT22;11925;48.122;11.560;2023-03-11T16:08:15;8.40;62.30
23497;DHT22;11925;48.122;11.560;2023-03-11T16:10:43;8.40;62.70
23497;DHT22;11925;48.122;11.560;2023-03-11T16:13:12;8.50;63.90
23497;DHT22;11925;48.122;11.560;2023-03-11T16:20:46;8.50;64.20
23497;DHT22;11925;48.122;11.560;2023-03-11T16:23:16;8.50;64.30
23497;DHT22;11925;48.122;11.560;2023-03-11T16:25:45;8.50;64.50
23497;DHT22;11925;48.122;11.560;2023-03-11T16:28:13;8.50;64.60
23497;DHT22;11925;48.122;11.560;2023-03-11T16:30:41;8.60;65.00